sensor_id;sensor_type;location;lat;lon;timestamp;P1;durP1;ratioP1;P2;durP2;ratioP2
69573;SDS011;62840;52.366;5.980;2023-04-24T00:01:25;3.28;;;1.40;;
69573;SDS011;62840;52.366;5.980;2023-04-24T00:03:51;2.85;;;1.30;;
69573;SDS011;62840;52.366;5.980;2023-04-24T00:06:19;3.30;;;1.25;;
69573;SDS011;62840;52.366;5.980;2023-04-24T00:08:45;3.30;;;1.40;;
69573;SDS011;62840;52.366;5.980;2023-04-24T00:11:11;3.20;;;1.80;;
69573;SDS011;62840;52.366;5.980;2023-04-24T00:13:37;3.50;;;1.90;;
69573;SDS011;62840;52.366;5.980;2023-04-24T00:16:03;3.10;;;1.60;;
69573;SDS011;62840;52.366;5.980;2023-04-24T00:18:29;3.20;;;1.85;;
69573;SDS011;62840;52.366;5.980;2023-04-24T00:20:55;3.65;;;2.08;;
69573;SDS011;62840;52.366;5.980;2023-04-24T00:23:23;3.22;;;1.65;;
69573;SDS011;62840;52.366;5.980;2023-04-24T00:25:49;3.20;;;1.70;;
69573;SDS011;62840;52.366;5.980;2023-04-24T00:28:15;4.13;;;1.92;;
69573;SDS011;62840;52.366;5.980;2023-04-24T00:30:41;3.30;;;1.83;;
69573;SDS011;62840;52.366;5.980;2023-04-24T00:33:06;4.53;;;2.05;;
69573;SDS011;62840;52.366;5.980;2023-04-24T00:35:32;3.20;;;1.50;;
69573;SDS011;62840;52.366;5.980;2023-04-24T00:37:58;4.15;;;1.63;;
69573;SDS011;62840;52.366;5.980;2023-04-24T00:40:26;3.47;;;1.60;;
69573;SDS011;62840;52.366;5.980;2023-04-24T00:42:52;3.03;;;1.55;;
69573;SDS011;62840;52.366;5.980;2023-04-24T00:45:18;3.88;;;1.63;;
69573;SDS011;62840;52.366;5.980;2023-04-24T00:47:44;3.75;;;1.50;;
69573;SDS011;62840;52.366;5.980;2023-04-24T00:50:10;4.35;;;1.52;;
69573;SDS011;62840;52.366;5.980;2023-04-24T00:52:36;3.05;;;1.42;;
69573;SDS011;62840;52.366;5.980;2023-04-24T00:55:02;2.90;;;1.40;;
69573;SDS011;62840;52.366;5.980;2023-04-24T00:57:31;2.97;;;1.50;;
69573;SDS011;62840;52.366;5.980;2023-04-24T00:59:57;3.95;;;1.50;;
69573;SDS011;62840;52.366;5.980;2023-04-24T01:02:23;3.55;;;1.60;;
69573;SDS011;62840;52.366;5.980;2023-04-24T01:04:50;3.72;;;1.70;;
69573;SDS011;62840;52.366;5.980;2023-04-24T01:07:23;5.35;;;1.80;;
69573;SDS011;62840;52.366;5.980;2023-04-24T01:09:50;3.63;;;2.00;;
69573;SDS011;62840;52.366;5.980;2023-04-24T01:12:23;3.45;;;1.70;;
69573;SDS011;62840;52.366;5.980;2023-04-24T01:14:57;4.03;;;1.88;;
69573;SDS011;62840;52.366;5.980;2023-04-24T01:17:26;4.18;;;1.88;;
69573;SDS011;62840;52.366;5.980;2023-04-24T01:19:58;3.70;;;2.10;;
69573;SDS011;62840;52.366;5.980;2023-04-24T01:22:32;3.63;;;1.85;;
69573;SDS011;62840;52.366;5.980;2023-04-24T01:24:58;3.75;;;2.20;;
69573;SDS011;62840;52.366;5.980;2023-04-24T01:27:30;4.13;;;2.40;;
69573;SDS011;62840;52.366;5.980;2023-04-24T01:29:59;3.72;;;2.30;;
69573;SDS011;62840;52.366;5.980;2023-04-24T01:32:39;3.67;;;2.25;;
69573;SDS011;62840;52.366;5.980;2023-04-24T01:35:13;4.45;;;2.00;;
69573;SDS011;62840;52.366;5.980;2023-04-24T01:37:45;4.85;;;2.55;;
69573;SDS011;62840;52.366;5.980;2023-04-24T01:40:15;4.90;;;2.60;;
69573;SDS011;62840;52.366;5.980;2023-04-24T01:42:48;5.20;;;2.50;;
69573;SDS011;62840;52.366;5.980;2023-04-24T01:45:23;4.35;;;2.25;;
69573;SDS011;62840;52.366;5.980;2023-04-24T01:47:54;5.03;;;2.40;;
69573;SDS011;62840;52.366;5.980;2023-04-24T01:50:34;4.50;;;2.42;;
69573;SDS011;62840;52.366;5.980;2023-04-24T01:53:10;4.35;;;2.25;;
69573;SDS011;62840;52.366;5.980;2023-04-24T01:56:00;4.55;;;2.13;;
69573;SDS011;62840;52.366;5.980;2023-04-24T01:58:47;3.63;;;2.03;;
69573;SDS011;62840;52.366;5.980;2023-04-24T02:01:20;3.63;;;1.83;;
69573;SDS011;62840;52.366;5.980;2023-04-24T02:04:14;4.63;;;2.00;;
69573;SDS011;62840;52.366;5.980;2023-04-24T02:06:52;3.47;;;1.70;;
69573;SDS011;62840;52.366;5.980;2023-04-24T02:09:25;4.20;;;2.08;;
69573;SDS011;62840;52.366;5.980;2023-04-24T02:11:59;3.47;;;1.98;;
69573;SDS011;62840;52.366;5.980;2023-04-24T02:14:32;3.97;;;1.92;;
69573;SDS011;62840;52.366;5.980;2023-04-24T02:17:04;4.22;;;1.80;;
69573;SDS011;62840;52.366;5.980;2023-04-24T02:19:31;3.58;;;1.92;;
69573;SDS011;62840;52.366;5.980;2023-04-24T02:22:03;6.53;;;2.00;;
69573;SDS011;62840;52.366;5.980;2023-04-24T02:24:38;4.75;;;2.10;;
69573;SDS011;62840;52.366;5.980;2023-04-24T02:27:13;4.40;;;2.10;;
69573;SDS011;62840;52.366;5.980;2023-04-24T02:29:46;4.13;;;2.13;;
69573;SDS011;62840;52.366;5.980;2023-04-24T02:32:19;5.22;;;2.03;;
69573;SDS011;62840;52.366;5.980;2023-04-24T02:34:45;4.72;;;2.30;;
69573;SDS011;62840;52.366;5.980;2023-04-24T02:37:19;5.60;;;2.40;;
69573;SDS011;62840;52.366;5.980;2023-04-24T02:40:04;4.00;;;2.20;;
69573;SDS011;62840;52.366;5.980;2023-04-24T02:42:38;5.43;;;2.17;;
69573;SDS011;62840;52.366;5.980;2023-04-24T02:45:10;3.97;;;2.17;;
69573;SDS011;62840;52.366;5.980;2023-04-24T02:47:42;5.25;;;2.38;;
69573;SDS011;62840;52.366;5.980;2023-04-24T02:50:12;4.43;;;2.50;;
69573;SDS011;62840;52.366;5.980;2023-04-24T02:52:48;4.47;;;2.35;;
69573;SDS011;62840;52.366;5.980;2023-04-24T02:55:19;4.40;;;2.15;;
69573;SDS011;62840;52.366;5.980;2023-04-24T02:57:52;5.25;;;2.45;;
69573;SDS011;62840;52.366;5.980;2023-04-24T03:00:31;5.32;;;2.50;;
69573;SDS011;62840;52.366;5.980;2023-04-24T03:03:09;5.40;;;2.50;;
69573;SDS011;62840;52.366;5.980;2023-04-24T03:05:44;5.10;;;2.40;;
69573;SDS011;62840;52.366;5.980;2023-04-24T03:08:17;5.15;;;2.58;;
69573;SDS011;62840;52.366;5.980;2023-04-24T03:10:46;7.03;;;2.90;;
69573;SDS011;62840;52.366;5.980;2023-04-24T03:13:20;5.32;;;3.00;;
69573;SDS011;62840;52.366;5.980;2023-04-24T03:15:49;4.60;;;2.30;;
69573;SDS011;62840;52.366;5.980;2023-04-24T03:18:24;4.93;;;2.47;;
69573;SDS011;62840;52.366;5.980;2023-04-24T03:20:52;5.03;;;2.63;;
69573;SDS011;62840;52.366;5.980;2023-04-24T03:23:25;4.82;;;2.53;;
69573;SDS011;62840;52.366;5.980;2023-04-24T03:25:54;5.53;;;2.85;;
69573;SDS011;62840;52.366;5.980;2023-04-24T03:28:34;4.57;;;2.45;;
69573;SDS011;62840;52.366;5.980;2023-04-24T03:31:03;4.93;;;2.78;;
69573;SDS011;62840;52.366;5.980;2023-04-24T03:33:39;4.72;;;2.58;;
69573;SDS011;62840;52.366;5.980;2023-04-24T03:36:08;7.55;;;2.58;;
69573;SDS011;62840;52.366;5.980;2023-04-24T03:38:33;4.82;;;2.65;;
69573;SDS011;62840;52.366;5.980;2023-04-24T03:41:06;4.75;;;2.40;;
69573;SDS011;62840;52.366;5.980;2023-04-24T03:43:39;5.75;;;2.60;;
69573;SDS011;62840;52.366;5.980;2023-04-24T03:46:16;5.80;;;2.70;;
69573;SDS011;62840;52.366;5.980;2023-04-24T03:48:50;6.07;;;2.40;;
69573;SDS011;62840;52.366;5.980;2023-04-24T03:51:27;5.20;;;2.55;;
69573;SDS011;62840;52.366;5.980;2023-04-24T03:53:57;4.97;;;2.60;;
69573;SDS011;62840;52.366;5.980;2023-04-24T03:56:31;6.82;;;2.10;;
69573;SDS011;62840;52.366;5.980;2023-04-24T03:59:04;4.53;;;2.40;;
69573;SDS011;62840;52.366;5.980;2023-04-24T04:01:30;6.75;;;2.30;;
69573;SDS011;62840;52.366;5.980;2023-04-24T04:04:01;4.28;;;2.05;;
69573;SDS011;62840;52.366;5.980;2023-04-24T04:06:31;5.68;;;2.25;;
69573;SDS011;62840;52.366;5.980;2023-04-24T04:09:01;4.68;;;1.90;;
69573;SDS011;62840;52.366;5.980;2023-04-24T04:11:33;6.10;;;2.33;;
69573;SDS011;62840;52.366;5.980;2023-04-24T04:14:06;5.18;;;1.98;;
69573;SDS011;62840;52.366;5.980;2023-04-24T04:16:49;5.55;;;2.00;;
69573;SDS011;62840;52.366;5.980;2023-04-24T04:19:39;3.47;;;1.70;;
69573;SDS011;62840;52.366;5.980;2023-04-24T04:22:05;5.30;;;1.73;;
69573;SDS011;62840;52.366;5.980;2023-04-24T04:24:32;3.83;;;1.90;;
69573;SDS011;62840;52.366;5.980;2023-04-24T04:27:01;4.53;;;2.03;;
69573;SDS011;62840;52.366;5.980;2023-04-24T04:29:35;3.78;;;1.92;;
69573;SDS011;62840;52.366;5.980;2023-04-24T04:32:02;4.20;;;1.75;;
69573;SDS011;62840;52.366;5.980;2023-04-24T04:34:30;3.92;;;1.83;;
69573;SDS011;62840;52.366;5.980;2023-04-24T04:37:00;3.83;;;1.58;;
69573;SDS011;62840;52.366;5.980;2023-04-24T04:39:33;4.00;;;1.88;;
69573;SDS011;62840;52.366;5.980;2023-04-24T04:42:06;3.50;;;1.70;;
69573;SDS011;62840;52.366;5.980;2023-04-24T04:44:36;4.18;;;2.13;;
69573;SDS011;62840;52.366;5.980;2023-04-24T04:47:05;3.47;;;1.60;;
69573;SDS011;62840;52.366;5.980;2023-04-24T04:49:34;5.07;;;1.90;;
69573;SDS011;62840;52.366;5.980;2023-04-24T04:52:07;4.45;;;1.85;;
69573;SDS011;62840;52.366;5.980;2023-04-24T04:54:34;5.13;;;1.73;;
69573;SDS011;62840;52.366;5.980;2023-04-24T04:57:07;4.25;;;1.70;;
69573;SDS011;62840;52.366;5.980;2023-04-24T05:02:22;5.53;;;1.80;;
69573;SDS011;62840;52.366;5.980;2023-04-24T05:04:48;4.25;;;1.95;;
69573;SDS011;62840;52.366;5.980;2023-04-24T05:07:17;4.78;;;1.90;;
69573;SDS011;62840;52.366;5.980;2023-04-24T05:09:47;4.00;;;1.73;;
69573;SDS011;62840;52.366;5.980;2023-04-24T05:12:33;3.95;;;1.65;;
69573;SDS011;62840;52.366;5.980;2023-04-24T05:15:09;4.53;;;1.90;;
69573;SDS011;62840;52.366;5.980;2023-04-24T05:17:43;3.90;;;1.90;;
69573;SDS011;62840;52.366;5.980;2023-04-24T05:20:09;4.13;;;1.73;;
69573;SDS011;62840;52.366;5.980;2023-04-24T05:22:42;4.47;;;2.03;;
69573;SDS011;62840;52.366;5.980;2023-04-24T05:25:17;4.32;;;1.80;;
69573;SDS011;62840;52.366;5.980;2023-04-24T05:27:47;3.88;;;1.70;;
69573;SDS011;62840;52.366;5.980;2023-04-24T05:30:19;4.10;;;1.90;;
69573;SDS011;62840;52.366;5.980;2023-04-24T05:32:52;5.88;;;1.60;;
69573;SDS011;62840;52.366;5.980;2023-04-24T05:35:27;4.30;;;1.80;;
69573;SDS011;62840;52.366;5.980;2023-04-24T05:37:55;4.93;;;1.75;;
69573;SDS011;62840;52.366;5.980;2023-04-24T05:40:22;4.63;;;1.85;;
69573;SDS011;62840;52.366;5.980;2023-04-24T05:42:58;3.72;;;1.73;;
69573;SDS011;62840;52.366;5.980;2023-04-24T05:45:29;4.43;;;2.03;;
69573;SDS011;62840;52.366;5.980;2023-04-24T05:47:56;4.70;;;1.80;;
69573;SDS011;62840;52.366;5.980;2023-04-24T05:50:25;4.97;;;2.00;;
69573;SDS011;62840;52.366;5.980;2023-04-24T05:52:52;5.30;;;1.90;;
69573;SDS011;62840;52.366;5.980;2023-04-24T05:55:24;4.40;;;1.52;;
69573;SDS011;62840;52.366;5.980;2023-04-24T05:58:04;4.20;;;1.85;;
69573;SDS011;62840;52.366;5.980;2023-04-24T06:00:40;3.95;;;1.95;;
69573;SDS011;62840;52.366;5.980;2023-04-24T06:03:21;6.63;;;2.05;;
69573;SDS011;62840;52.366;5.980;2023-04-24T06:05:50;4.70;;;1.90;;
69573;SDS011;62840;52.366;5.980;2023-04-24T06:08:22;4.55;;;1.85;;
69573;SDS011;62840;52.366;5.980;2023-04-24T06:10:51;4.32;;;1.85;;
69573;SDS011;62840;52.366;5.980;2023-04-24T06:13:32;3.58;;;1.40;;
69573;SDS011;62840;52.366;5.980;2023-04-24T06:15:59;3.60;;;1.50;;
69573;SDS011;62840;52.366;5.980;2023-04-24T06:18:25;3.78;;;1.83;;
69573;SDS011;62840;52.366;5.980;2023-04-24T06:20:57;4.07;;;1.65;;
69573;SDS011;62840;52.366;5.980;2023-04-24T06:23:30;3.60;;;1.42;;
69573;SDS011;62840;52.366;5.980;2023-04-24T06:26:01;4.05;;;1.92;;
69573;SDS011;62840;52.366;5.980;2023-04-24T06:28:34;4.30;;;1.73;;
69573;SDS011;62840;52.366;5.980;2023-04-24T06:31:07;4.00;;;1.60;;
69573;SDS011;62840;52.366;5.980;2023-04-24T06:33:34;3.55;;;1.52;;
69573;SDS011;62840;52.366;5.980;2023-04-24T06:36:03;4.18;;;1.40;;
69573;SDS011;62840;52.366;5.980;2023-04-24T06:38:35;4.72;;;1.50;;
69573;SDS011;62840;52.366;5.980;2023-04-24T06:41:09;3.80;;;1.10;;
69573;SDS011;62840;52.366;5.980;2023-04-24T06:43:43;4.00;;;1.20;;
69573;SDS011;62840;52.366;5.980;2023-04-24T06:46:19;4.75;;;1.52;;
69573;SDS011;62840;52.366;5.980;2023-04-24T06:48:51;4.57;;;1.27;;
69573;SDS011;62840;52.366;5.980;2023-04-24T06:51:20;3.13;;;1.30;;
69573;SDS011;62840;52.366;5.980;2023-04-24T06:53:54;3.97;;;1.20;;
69573;SDS011;62840;52.366;5.980;2023-04-24T06:56:23;2.97;;;0.93;;
69573;SDS011;62840;52.366;5.980;2023-04-24T06:59:10;5.70;;;1.05;;
69573;SDS011;62840;52.366;5.980;2023-04-24T07:01:36;2.90;;;1.27;;
69573;SDS011;62840;52.366;5.980;2023-04-24T07:04:07;3.08;;;1.10;;
69573;SDS011;62840;52.366;5.980;2023-04-24T07:06:38;3.97;;;1.20;;
69573;SDS011;62840;52.366;5.980;2023-04-24T07:09:15;2.80;;;1.20;;
69573;SDS011;62840;52.366;5.980;2023-04-24T07:12:02;5.50;;;1.40;;
69573;SDS011;62840;52.366;5.980;2023-04-24T07:14:39;3.03;;;1.00;;
69573;SDS011;62840;52.366;5.980;2023-04-24T07:17:09;3.28;;;1.38;;
69573;SDS011;62840;52.366;5.980;2023-04-24T07:19:41;3.23;;;1.00;;
69573;SDS011;62840;52.366;5.980;2023-04-24T07:22:12;4.57;;;1.20;;
69573;SDS011;62840;52.366;5.980;2023-04-24T07:24:43;4.57;;;1.30;;
69573;SDS011;62840;52.366;5.980;2023-04-24T07:27:14;3.85;;;0.90;;
69573;SDS011;62840;52.366;5.980;2023-04-24T07:29:54;3.40;;;1.10;;
69573;SDS011;62840;52.366;5.980;2023-04-24T07:32:32;4.03;;;1.37;;
69573;SDS011;62840;52.366;5.980;2023-04-24T07:35:10;4.88;;;1.70;;
69573;SDS011;62840;52.366;5.980;2023-04-24T07:37:41;4.75;;;2.10;;
69573;SDS011;62840;52.366;5.980;2023-04-24T07:40:14;5.88;;;2.40;;
69573;SDS011;62840;52.366;5.980;2023-04-24T07:42:41;7.47;;;2.65;;
69573;SDS011;62840;52.366;5.980;2023-04-24T07:45:15;6.47;;;2.67;;
69573;SDS011;62840;52.366;5.980;2023-04-24T07:47:58;6.90;;;3.05;;
69573;SDS011;62840;52.366;5.980;2023-04-24T07:50:35;6.45;;;2.90;;
69573;SDS011;62840;52.366;5.980;2023-04-24T07:53:10;6.47;;;2.92;;
69573;SDS011;62840;52.366;5.980;2023-04-24T07:55:37;6.72;;;3.50;;
69573;SDS011;62840;52.366;5.980;2023-04-24T07:58:06;5.93;;;2.80;;
69573;SDS011;62840;52.366;5.980;2023-04-24T08:00:48;8.57;;;3.40;;
69573;SDS011;62840;52.366;5.980;2023-04-24T08:03:16;8.05;;;3.80;;
69573;SDS011;62840;52.366;5.980;2023-04-24T08:05:52;8.10;;;3.55;;
69573;SDS011;62840;52.366;5.980;2023-04-24T08:08:25;8.07;;;4.25;;
69573;SDS011;62840;52.366;5.980;2023-04-24T08:10:56;8.53;;;3.67;;
69573;SDS011;62840;52.366;5.980;2023-04-24T08:13:34;7.25;;;4.15;;
69573;SDS011;62840;52.366;5.980;2023-04-24T08:18:54;7.72;;;3.53;;
69573;SDS011;62840;52.366;5.980;2023-04-24T08:21:23;7.82;;;4.07;;
69573;SDS011;62840;52.366;5.980;2023-04-24T08:24:05;7.80;;;3.87;;
69573;SDS011;62840;52.366;5.980;2023-04-24T08:26:33;9.55;;;4.00;;
69573;SDS011;62840;52.366;5.980;2023-04-24T08:29:02;9.10;;;4.05;;
69573;SDS011;62840;52.366;5.980;2023-04-24T08:31:38;8.88;;;3.95;;
69573;SDS011;62840;52.366;5.980;2023-04-24T08:34:16;12.70;;;4.75;;
69573;SDS011;62840;52.366;5.980;2023-04-24T08:37:00;9.90;;;4.57;;
69573;SDS011;62840;52.366;5.980;2023-04-24T08:39:33;8.95;;;4.20;;
69573;SDS011;62840;52.366;5.980;2023-04-24T08:42:01;9.40;;;4.90;;
69573;SDS011;62840;52.366;5.980;2023-04-24T08:44:53;10.88;;;4.28;;
69573;SDS011;62840;52.366;5.980;2023-04-24T08:47:34;11.18;;;4.38;;
69573;SDS011;62840;52.366;5.980;2023-04-24T08:50:05;7.27;;;3.83;;
69573;SDS011;62840;52.366;5.980;2023-04-24T08:52:34;9.30;;;4.03;;
69573;SDS011;62840;52.366;5.980;2023-04-24T08:55:02;10.38;;;4.65;;
69573;SDS011;62840;52.366;5.980;2023-04-24T08:57:36;8.52;;;3.78;;
69573;SDS011;62840;52.366;5.980;2023-04-24T09:00:06;10.30;;;4.00;;
69573;SDS011;62840;52.366;5.980;2023-04-24T09:02:38;9.83;;;4.30;;
69573;SDS011;62840;52.366;5.980;2023-04-24T09:05:16;8.00;;;3.70;;
69573;SDS011;62840;52.366;5.980;2023-04-24T09:07:49;8.55;;;4.07;;
69573;SDS011;62840;52.366;5.980;2023-04-24T09:10:21;8.18;;;3.47;;
69573;SDS011;62840;52.366;5.980;2023-04-24T09:12:53;8.63;;;4.20;;
69573;SDS011;62840;52.366;5.980;2023-04-24T09:15:24;8.87;;;3.50;;
69573;SDS011;62840;52.366;5.980;2023-04-24T09:18:00;11.25;;;4.20;;
69573;SDS011;62840;52.366;5.980;2023-04-24T09:20:33;12.38;;;4.00;;
69573;SDS011;62840;52.366;5.980;2023-04-24T09:23:21;8.82;;;4.10;;
69573;SDS011;62840;52.366;5.980;2023-04-24T09:25:48;9.68;;;4.30;;
69573;SDS011;62840;52.366;5.980;2023-04-24T09:28:32;12.53;;;3.87;;
69573;SDS011;62840;52.366;5.980;2023-04-24T09:31:24;8.23;;;3.65;;
69573;SDS011;62840;52.366;5.980;2023-04-24T09:34:02;8.07;;;3.53;;
69573;SDS011;62840;52.366;5.980;2023-04-24T09:36:40;8.18;;;3.33;;
69573;SDS011;62840;52.366;5.980;2023-04-24T09:39:15;6.65;;;3.03;;
69573;SDS011;62840;52.366;5.980;2023-04-24T09:41:54;8.70;;;2.70;;
69573;SDS011;62840;52.366;5.980;2023-04-24T09:44:26;5.03;;;2.40;;
69573;SDS011;62840;52.366;5.980;2023-04-24T09:47:01;8.00;;;2.28;;
69573;SDS011;62840;52.366;5.980;2023-04-24T09:49:30;6.05;;;2.30;;
69573;SDS011;62840;52.366;5.980;2023-04-24T09:52:09;6.10;;;2.45;;
69573;SDS011;62840;52.366;5.980;2023-04-24T09:54:39;6.43;;;2.47;;
69573;SDS011;62840;52.366;5.980;2023-04-24T09:57:18;9.45;;;2.47;;
69573;SDS011;62840;52.366;5.980;2023-04-24T09:59:50;6.93;;;2.13;;
69573;SDS011;62840;52.366;5.980;2023-04-24T10:02:27;5.13;;;2.03;;
69573;SDS011;62840;52.366;5.980;2023-04-24T10:05:08;7.18;;;2.20;;
69573;SDS011;62840;52.366;5.980;2023-04-24T10:07:56;5.93;;;1.60;;
69573;SDS011;62840;52.366;5.980;2023-04-24T10:10:33;6.90;;;2.00;;
69573;SDS011;62840;52.366;5.980;2023-04-24T10:13:13;7.32;;;2.20;;
69573;SDS011;62840;52.366;5.980;2023-04-24T10:15:57;9.23;;;1.88;;
69573;SDS011;62840;52.366;5.980;2023-04-24T10:21:14;6.10;;;1.50;;
69573;SDS011;62840;52.366;5.980;2023-04-24T10:23:44;10.95;;;1.77;;
69573;SDS011;62840;52.366;5.980;2023-04-24T10:26:21;7.63;;;1.77;;
69573;SDS011;62840;52.366;5.980;2023-04-24T10:28:51;8.32;;;1.60;;
69573;SDS011;62840;52.366;5.980;2023-04-24T10:31:22;5.47;;;1.95;;
69573;SDS011;62840;52.366;5.980;2023-04-24T10:33:51;8.13;;;1.60;;
69573;SDS011;62840;52.366;5.980;2023-04-24T10:36:31;5.95;;;1.40;;
69573;SDS011;62840;52.366;5.980;2023-04-24T10:39:06;6.32;;;1.70;;
69573;SDS011;62840;52.366;5.980;2023-04-24T10:41:46;6.32;;;1.50;;
69573;SDS011;62840;52.366;5.980;2023-04-24T10:44:18;6.25;;;1.38;;
69573;SDS011;62840;52.366;5.980;2023-04-24T10:46:52;4.53;;;1.13;;
69573;SDS011;62840;52.366;5.980;2023-04-24T10:49:27;4.32;;;1.27;;
69573;SDS011;62840;52.366;5.980;2023-04-24T10:52:04;5.15;;;1.70;;
69573;SDS011;62840;52.366;5.980;2023-04-24T10:54:34;5.63;;;1.88;;
69573;SDS011;62840;52.366;5.980;2023-04-24T11:02:52;4.35;;;1.52;;
69573;SDS011;62840;52.366;5.980;2023-04-24T11:05:48;6.95;;;1.70;;
69573;SDS011;62840;52.366;5.980;2023-04-24T11:08:45;7.28;;;1.35;;
69573;SDS011;62840;52.366;5.980;2023-04-24T11:11:16;4.38;;;1.40;;
69573;SDS011;62840;52.366;5.980;2023-04-24T11:14:03;4.63;;;1.90;;
69573;SDS011;62840;52.366;5.980;2023-04-24T11:16:34;7.95;;;1.60;;
69573;SDS011;62840;52.366;5.980;2023-04-24T11:19:17;5.18;;;2.30;;
69573;SDS011;62840;52.366;5.980;2023-04-24T11:21:55;5.88;;;2.10;;
69573;SDS011;62840;52.366;5.980;2023-04-24T11:24:31;8.65;;;1.88;;
69573;SDS011;62840;52.366;5.980;2023-04-24T11:27:17;8.30;;;2.03;;
69573;SDS011;62840;52.366;5.980;2023-04-24T11:29:58;11.77;;;2.38;;
69573;SDS011;62840;52.366;5.980;2023-04-24T11:32:36;7.90;;;1.90;;
69573;SDS011;62840;52.366;5.980;2023-04-24T11:35:30;9.95;;;2.10;;
69573;SDS011;62840;52.366;5.980;2023-04-24T11:38:05;6.38;;;1.30;;
69573;SDS011;62840;52.366;5.980;2023-04-24T11:40:41;6.00;;;1.50;;
69573;SDS011;62840;52.366;5.980;2023-04-24T11:43:09;5.15;;;1.42;;
69573;SDS011;62840;52.366;5.980;2023-04-24T11:45:47;4.28;;;1.52;;
69573;SDS011;62840;52.366;5.980;2023-04-24T11:48:21;6.82;;;1.30;;
69573;SDS011;62840;52.366;5.980;2023-04-24T11:51:01;4.32;;;1.25;;
69573;SDS011;62840;52.366;5.980;2023-04-24T11:53:33;5.37;;;1.10;;
69573;SDS011;62840;52.366;5.980;2023-04-24T11:56:08;4.43;;;1.05;;
69573;SDS011;62840;52.366;5.980;2023-04-24T11:58:58;4.43;;;1.33;;
69573;SDS011;62840;52.366;5.980;2023-04-24T12:01:29;5.32;;;1.20;;
69573;SDS011;62840;52.366;5.980;2023-04-24T12:04:10;4.10;;;1.63;;
69573;SDS011;62840;52.366;5.980;2023-04-24T12:07:05;3.57;;;1.60;;
69573;SDS011;62840;52.366;5.980;2023-04-24T12:09:43;4.32;;;1.50;;
69573;SDS011;62840;52.366;5.980;2023-04-24T12:12:14;5.78;;;1.20;;
69573;SDS011;62840;52.366;5.980;2023-04-24T12:14:51;4.25;;;0.95;;
69573;SDS011;62840;52.366;5.980;2023-04-24T12:17:35;2.80;;;0.82;;
69573;SDS011;62840;52.366;5.980;2023-04-24T12:20:08;3.77;;;0.80;;
69573;SDS011;62840;52.366;5.980;2023-04-24T12:22:44;5.05;;;1.08;;
69573;SDS011;62840;52.366;5.980;2023-04-24T12:25:12;4.20;;;1.30;;
69573;SDS011;62840;52.366;5.980;2023-04-24T12:28:08;5.22;;;1.05;;
69573;SDS011;62840;52.366;5.980;2023-04-24T12:30:39;4.72;;;1.00;;
69573;SDS011;62840;52.366;5.980;2023-04-24T12:33:08;4.40;;;1.00;;
69573;SDS011;62840;52.366;5.980;2023-04-24T12:35:34;3.75;;;1.00;;
69573;SDS011;62840;52.366;5.980;2023-04-24T12:38:07;4.50;;;0.80;;
69573;SDS011;62840;52.366;5.980;2023-04-24T12:40:35;4.55;;;1.40;;
69573;SDS011;62840;52.366;5.980;2023-04-24T12:43:12;2.83;;;0.88;;
69573;SDS011;62840;52.366;5.980;2023-04-24T12:45:44;3.10;;;1.20;;
69573;SDS011;62840;52.366;5.980;2023-04-24T12:48:10;4.25;;;1.45;;
69573;SDS011;62840;52.366;5.980;2023-04-24T12:50:39;3.75;;;1.00;;
69573;SDS011;62840;52.366;5.980;2023-04-24T12:53:07;5.80;;;1.00;;
69573;SDS011;62840;52.366;5.980;2023-04-24T12:55:33;3.80;;;0.80;;
69573;SDS011;62840;52.366;5.980;2023-04-24T12:58:05;4.82;;;1.00;;
69573;SDS011;62840;52.366;5.980;2023-04-24T13:00:31;4.07;;;1.23;;
69573;SDS011;62840;52.366;5.980;2023-04-24T13:03:03;6.70;;;1.02;;
69573;SDS011;62840;52.366;5.980;2023-04-24T13:05:29;4.13;;;0.80;;
69573;SDS011;62840;52.366;5.980;2023-04-24T13:07:56;2.33;;;0.63;;
69573;SDS011;62840;52.366;5.980;2023-04-24T13:10:22;3.58;;;0.80;;
69573;SDS011;62840;52.366;5.980;2023-04-24T13:12:48;3.75;;;0.70;;
69573;SDS011;62840;52.366;5.980;2023-04-24T13:15:26;6.00;;;0.95;;
69573;SDS011;62840;52.366;5.980;2023-04-24T13:17:53;3.50;;;0.80;;
69573;SDS011;62840;52.366;5.980;2023-04-24T13:20:20;4.47;;;0.85;;
69573;SDS011;62840;52.366;5.980;2023-04-24T13:22:46;4.32;;;0.95;;
69573;SDS011;62840;52.366;5.980;2023-04-24T13:25:16;3.58;;;1.15;;
69573;SDS011;62840;52.366;5.980;2023-04-24T13:27:44;4.03;;;1.15;;
69573;SDS011;62840;52.366;5.980;2023-04-24T13:30:10;3.55;;;1.10;;
69573;SDS011;62840;52.366;5.980;2023-04-24T13:32:41;6.03;;;1.08;;
69573;SDS011;62840;52.366;5.980;2023-04-24T13:35:10;4.68;;;1.35;;
69573;SDS011;62840;52.366;5.980;2023-04-24T13:37:37;5.18;;;1.23;;
69573;SDS011;62840;52.366;5.980;2023-04-24T13:40:08;6.55;;;2.40;;
69573;SDS011;62840;52.366;5.980;2023-04-24T13:42:35;4.97;;;1.52;;
69573;SDS011;62840;52.366;5.980;2023-04-24T13:45:06;5.65;;;1.75;;
69573;SDS011;62840;52.366;5.980;2023-04-24T13:47:34;5.93;;;1.80;;
69573;SDS011;62840;52.366;5.980;2023-04-24T13:50:03;4.38;;;1.80;;
69573;SDS011;62840;52.366;5.980;2023-04-24T13:52:30;7.18;;;1.77;;
69573;SDS011;62840;52.366;5.980;2023-04-24T13:54:58;5.68;;;1.65;;
69573;SDS011;62840;52.366;5.980;2023-04-24T13:57:25;4.88;;;1.58;;
69573;SDS011;62840;52.366;5.980;2023-04-24T13:59:54;9.03;;;1.70;;
69573;SDS011;62840;52.366;5.980;2023-04-24T14:02:22;13.30;;;1.65;;
69573;SDS011;62840;52.366;5.980;2023-04-24T14:04:48;5.28;;;1.55;;
69573;SDS011;62840;52.366;5.980;2023-04-24T14:07:16;7.40;;;1.97;;
69573;SDS011;62840;52.366;5.980;2023-04-24T14:09:42;8.85;;;1.70;;
69573;SDS011;62840;52.366;5.980;2023-04-24T14:12:08;7.90;;;1.60;;
69573;SDS011;62840;52.366;5.980;2023-04-24T14:14:34;6.70;;;1.85;;
69573;SDS011;62840;52.366;5.980;2023-04-24T14:17:00;5.55;;;1.50;;
69573;SDS011;62840;52.366;5.980;2023-04-24T14:19:32;8.50;;;2.22;;
69573;SDS011;62840;52.366;5.980;2023-04-24T14:21:58;6.25;;;1.80;;
69573;SDS011;62840;52.366;5.980;2023-04-24T14:24:29;7.88;;;1.42;;
69573;SDS011;62840;52.366;5.980;2023-04-24T14:26:54;6.75;;;2.05;;
69573;SDS011;62840;52.366;5.980;2023-04-24T14:29:20;8.10;;;2.03;;
69573;SDS011;62840;52.366;5.980;2023-04-24T14:31:52;7.90;;;1.90;;
69573;SDS011;62840;52.366;5.980;2023-04-24T14:34:20;6.18;;;1.83;;
69573;SDS011;62840;52.366;5.980;2023-04-24T14:36:47;7.43;;;2.28;;
69573;SDS011;62840;52.366;5.980;2023-04-24T14:39:15;5.53;;;1.80;;
69573;SDS011;62840;52.366;5.980;2023-04-24T14:41:43;9.57;;;2.03;;
69573;SDS011;62840;52.366;5.980;2023-04-24T14:44:12;9.98;;;1.83;;
69573;SDS011;62840;52.366;5.980;2023-04-24T14:46:40;12.07;;;2.10;;
69573;SDS011;62840;52.366;5.980;2023-04-24T14:49:07;7.90;;;2.00;;
69573;SDS011;62840;52.366;5.980;2023-04-24T14:51:33;6.05;;;2.15;;
69573;SDS011;62840;52.366;5.980;2023-04-24T14:54:02;9.50;;;2.35;;
69573;SDS011;62840;52.366;5.980;2023-04-24T14:56:31;8.25;;;2.22;;
69573;SDS011;62840;52.366;5.980;2023-04-24T14:59:02;6.45;;;1.80;;
69573;SDS011;62840;52.366;5.980;2023-04-24T15:01:28;7.67;;;2.00;;
69573;SDS011;62840;52.366;5.980;2023-04-24T15:03:54;7.22;;;1.77;;
69573;SDS011;62840;52.366;5.980;2023-04-24T15:06:25;6.70;;;2.28;;
69573;SDS011;62840;52.366;5.980;2023-04-24T15:08:59;9.30;;;1.70;;
69573;SDS011;62840;52.366;5.980;2023-04-24T15:11:25;6.68;;;1.70;;
69573;SDS011;62840;52.366;5.980;2023-04-24T15:13:51;8.03;;;1.87;;
69573;SDS011;62840;52.366;5.980;2023-04-24T15:16:26;5.53;;;2.33;;
69573;SDS011;62840;52.366;5.980;2023-04-24T15:18:52;6.10;;;1.63;;
69573;SDS011;62840;52.366;5.980;2023-04-24T15:21:18;8.20;;;2.13;;
69573;SDS011;62840;52.366;5.980;2023-04-24T15:23:47;5.50;;;1.55;;
69573;SDS011;62840;52.366;5.980;2023-04-24T15:26:13;8.30;;;2.05;;
69573;SDS011;62840;52.366;5.980;2023-04-24T15:28:42;5.97;;;1.63;;
69573;SDS011;62840;52.366;5.980;2023-04-24T15:31:15;8.13;;;2.30;;
69573;SDS011;62840;52.366;5.980;2023-04-24T15:33:43;8.90;;;2.30;;